sensor_id;sensor_type;location;lat;lon;timestamp;pressure;altitude;pressure_sealevel;temperature
45701;BMP280;36277;32.852;-116.998;2022-07-29T00:02:15;99591.97;;;24.41
45701;BMP280;36277;32.852;-116.998;2022-07-29T00:04:41;99579.22;;;24.40
45701;BMP280;36277;32.852;-116.998;2022-07-29T00:07:07;99587.91;;;24.37
45701;BMP280;36277;32.852;-116.998;2022-07-29T00:09:34;99580.50;;;24.31
45701;BMP280;36277;32.852;-116.998;2022-07-29T00:14:27;99585.09;;;24.12
45701;BMP280;36277;32.852;-116.998;2022-07-29T00:16:54;99591.50;;;24.25
45701;BMP280;36277;32.852;-116.998;2022-07-29T00:19:20;99599.69;;;24.59
45701;BMP280;36277;32.852;-116.998;2022-07-29T00:21:47;99596.53;;;24.88
45701;BMP280;36277;32.852;-116.998;2022-07-29T00:24:13;99592.75;;;25.15
45701;BMP280;36277;32.852;-116.998;2022-07-29T00:26:39;99597.81;;;25.37
45701;BMP280;36277;32.852;-116.998;2022-07-29T00:29:06;99596.97;;;25.36
45701;BMP280;36277;32.852;-116.998;2022-07-29T00:31:32;99598.06;;;25.16
45701;BMP280;36277;32.852;-116.998;2022-07-29T00:33:58;99605.03;;;24.93
45701;BMP280;36277;32.852;-116.998;2022-07-29T00:36:24;99604.97;;;24.60
45701;BMP280;36277;32.852;-116.998;2022-07-29T00:38:51;99605.38;;;24.51
45701;BMP280;36277;32.852;-116.998;2022-07-29T00:41:18;99598.06;;;24.24
45701;BMP280;36277;32.852;-116.998;2022-07-29T00:43:45;99599.00;;;24.44
45701;BMP280;36277;32.852;-116.998;2022-07-29T00:46:11;99596.09;;;24.78
45701;BMP280;36277;32.852;-116.998;2022-07-29T00:48:38;99591.88;;;25.08
45701;BMP280;36277;32.852;-116.998;2022-07-29T00:51:05;99593.56;;;25.34
45701;BMP280;36277;32.852;-116.998;2022-07-29T00:53:34;99583.78;;;25.58
45701;BMP280;36277;32.852;-116.998;2022-07-29T00:56:01;99593.28;;;25.75
45701;BMP280;36277;32.852;-116.998;2022-07-29T00:58:27;99589.72;;;25.55
45701;BMP280;36277;32.852;-116.998;2022-07-29T01:00:54;99594.44;;;25.28
45701;BMP280;36277;32.852;-116.998;2022-07-29T01:03:20;99601.63;;;24.91
45701;BMP280;36277;32.852;-116.998;2022-07-29T01:05:46;99605.44;;;24.70
45701;BMP280;36277;32.852;-116.998;2022-07-29T01:08:14;99600.69;;;24.45
45701;BMP280;36277;32.852;-116.998;2022-07-29T01:10:41;99608.00;;;24.12
45701;BMP280;36277;32.852;-116.998;2022-07-29T01:13:09;99616.38;;;24.44
45701;BMP280;36277;32.852;-116.998;2022-07-29T01:15:57;99619.69;;;24.87
45701;BMP280;36277;32.852;-116.998;2022-07-29T01:18:30;99613.97;;;25.14
45701;BMP280;36277;32.852;-116.998;2022-07-29T01:32:22;99616.78;;;26.16
45701;BMP280;36277;32.852;-116.998;2022-07-29T01:34:55;99619.31;;;26.24
45701;BMP280;36277;32.852;-116.998;2022-07-29T01:37:31;99617.75;;;26.35
45701;BMP280;36277;32.852;-116.998;2022-07-29T01:40:00;99629.22;;;26.44
45701;BMP280;36277;32.852;-116.998;2022-07-29T01:42:45;99635.75;;;26.56
45701;BMP280;36277;32.852;-116.998;2022-07-29T01:45:18;99639.56;;;26.62
45701;BMP280;36277;32.852;-116.998;2022-07-29T01:51:16;99650.31;;;26.76
45701;BMP280;36277;32.852;-116.998;2022-07-29T01:56:33;99664.25;;;26.94
45701;BMP280;36277;32.852;-116.998;2022-07-29T01:59:02;99676.38;;;27.00
45701;BMP280;36277;32.852;-116.998;2022-07-29T02:01:31;99674.66;;;27.05
45701;BMP280;36277;32.852;-116.998;2022-07-29T02:03:59;99684.88;;;27.11
45701;BMP280;36277;32.852;-116.998;2022-07-29T02:06:31;99684.19;;;27.16
45701;BMP280;36277;32.852;-116.998;2022-07-29T02:08:59;99682.66;;;27.20
45701;BMP280;36277;32.852;-116.998;2022-07-29T02:11:25;99686.69;;;27.24
45701;BMP280;36277;32.852;-116.998;2022-07-29T02:13:56;99689.41;;;27.30
45701;BMP280;36277;32.852;-116.998;2022-07-29T02:16:26;99684.47;;;27.32
45701;BMP280;36277;32.852;-116.998;2022-07-29T02:18:54;99683.78;;;27.37
45701;BMP280;36277;32.852;-116.998;2022-07-29T02:21:24;99692.28;;;27.42
45701;BMP280;36277;32.852;-116.998;2022-07-29T02:23:52;99691.84;;;27.45
45701;BMP280;36277;32.852;-116.998;2022-07-29T02:26:20;99700.78;;;27.47
45701;BMP280;36277;32.852;-116.998;2022-07-29T02:28:51;99705.63;;;27.51
45701;BMP280;36277;32.852;-116.998;2022-07-29T02:31:20;99714.34;;;27.54
45701;BMP280;36277;32.852;-116.998;2022-07-29T02:33:48;99712.16;;;27.63
45701;BMP280;36277;32.852;-116.998;2022-07-29T02:36:16;99718.56;;;27.33
45701;BMP280;36277;32.852;-116.998;2022-07-29T02:38:44;99724.97;;;26.58
45701;BMP280;36277;32.852;-116.998;2022-07-29T02:41:25;99731.25;;;26.02
45701;BMP280;36277;32.852;-116.998;2022-07-29T02:43:55;99738.09;;;25.67
45701;BMP280;36277;32.852;-116.998;2022-07-29T02:47:09;99727.03;;;25.41
45701;BMP280;36277;32.852;-116.998;2022-07-29T02:49:55;99742.69;;;25.09
45701;BMP280;36277;32.852;-116.998;2022-07-29T02:52:24;99734.56;;;24.88
45701;BMP280;36277;32.852;-116.998;2022-07-29T02:54:56;99733.06;;;24.85
45701;BMP280;36277;32.852;-116.998;2022-07-29T03:00:15;99740.00;;;24.28
45701;BMP280;36277;32.852;-116.998;2022-07-29T03:02:45;99729.47;;;24.04
45701;BMP280;36277;32.852;-116.998;2022-07-29T03:05:16;99725.69;;;24.12
45701;BMP280;36277;32.852;-116.998;2022-07-29T03:07:48;99737.59;;;24.12
45701;BMP280;36277;32.852;-116.998;2022-07-29T03:10:15;99737.59;;;24.12
45701;BMP280;36277;32.852;-116.998;2022-07-29T03:12:42;99738.25;;;24.14
45701;BMP280;36277;32.852;-116.998;2022-07-29T03:15:10;99747.69;;;23.99
45701;BMP280;36277;32.852;-116.998;2022-07-29T03:17:37;99745.44;;;23.81
45701;BMP280;36277;32.852;-116.998;2022-07-29T03:20:06;99749.13;;;23.67
45701;BMP280;36277;32.852;-116.998;2022-07-29T03:22:33;99755.38;;;23.55
45701;BMP280;36277;32.852;-116.998;2022-07-29T03:25:08;99771.78;;;23.42
45701;BMP280;36277;32.852;-116.998;2022-07-29T03:27:34;99775.97;;;23.38
45701;BMP280;36277;32.852;-116.998;2022-07-29T03:30:01;99780.22;;;23.19
45701;BMP280;36277;32.852;-116.998;2022-07-29T03:32:27;99785.75;;;23.40
45701;BMP280;36277;32.852;-116.998;2022-07-29T03:34:53;99798.41;;;23.35
45701;BMP280;36277;32.852;-116.998;2022-07-29T03:37:19;99802.00;;;23.14
45701;BMP280;36277;32.852;-116.998;2022-07-29T03:39:46;99797.47;;;23.07
45701;BMP280;36277;32.852;-116.998;2022-07-29T03:42:15;99806.34;;;22.74
45701;BMP280;36277;32.852;-116.998;2022-07-29T03:44:46;99806.25;;;22.82
45701;BMP280;36277;32.852;-116.998;2022-07-29T03:47:14;99803.06;;;22.64
45701;BMP280;36277;32.852;-116.998;2022-07-29T03:49:42;99809.75;;;22.32
45701;BMP280;36277;32.852;-116.998;2022-07-29T03:52:10;99816.25;;;22.39
45701;BMP280;36277;32.852;-116.998;2022-07-29T03:54:37;99812.78;;;22.81
45701;BMP280;36277;32.852;-116.998;2022-07-29T03:57:05;99822.00;;;23.23
45701;BMP280;36277;32.852;-116.998;2022-07-29T03:59:33;99813.41;;;23.53
45701;BMP280;36277;32.852;-116.998;2022-07-29T04:02:03;99829.69;;;23.69
45701;BMP280;36277;32.852;-116.998;2022-07-29T04:04:35;99818.66;;;23.69
45701;BMP280;36277;32.852;-116.998;2022-07-29T04:07:01;99821.56;;;23.40
45701;BMP280;36277;32.852;-116.998;2022-07-29T04:09:28;99826.03;;;23.06
45701;BMP280;36277;32.852;-116.998;2022-07-29T04:11:54;99832.28;;;22.65
45701;BMP280;36277;32.852;-116.998;2022-07-29T04:14:20;99836.63;;;22.45
45701;BMP280;36277;32.852;-116.998;2022-07-29T04:16:47;99831.69;;;22.55
45701;BMP280;36277;32.852;-116.998;2022-07-29T04:19:13;99833.28;;;22.93
45701;BMP280;36277;32.852;-116.998;2022-07-29T04:21:40;99836.50;;;23.31
45701;BMP280;36277;32.852;-116.998;2022-07-29T04:24:07;99840.19;;;23.59
45701;BMP280;36277;32.852;-116.998;2022-07-29T04:26:34;99841.06;;;23.81
45701;BMP280;36277;32.852;-116.998;2022-07-29T04:29:01;99836.81;;;23.85
45701;BMP280;36277;32.852;-116.998;2022-07-29T04:31:27;99837.78;;;23.77
45701;BMP280;36277;32.852;-116.998;2022-07-29T04:33:53;99837.16;;;23.54
45701;BMP280;36277;32.852;-116.998;2022-07-29T04:36:20;99832.19;;;23.08
45701;BMP280;36277;32.852;-116.998;2022-07-29T04:38:46;99829.25;;;22.60
45701;BMP280;36277;32.852;-116.998;2022-07-29T04:41:12;99828.56;;;22.58
45701;BMP280;36277;32.852;-116.998;2022-07-29T04:43:39;99834.41;;;22.98
45701;BMP280;36277;32.852;-116.998;2022-07-29T04:46:06;99836.50;;;23.31
45701;BMP280;36277;32.852;-116.998;2022-07-29T04:48:33;99845.16;;;23.49
45701;BMP280;36277;32.852;-116.998;2022-07-29T04:50:59;99837.31;;;23.67
45701;BMP280;36277;32.852;-116.998;2022-07-29T04:53:26;99842.28;;;23.78
45701;BMP280;36277;32.852;-116.998;2022-07-29T04:55:52;99842.66;;;23.75
45701;BMP280;36277;32.852;-116.998;2022-07-29T04:58:18;99859.31;;;23.46
45701;BMP280;36277;32.852;-116.998;2022-07-29T05:00:45;99860.28;;;23.03
45701;BMP280;36277;32.852;-116.998;2022-07-29T05:03:11;99869.09;;;22.64
45701;BMP280;36277;32.852;-116.998;2022-07-29T05:05:37;99859.41;;;22.39
45701;BMP280;36277;32.852;-116.998;2022-07-29T05:08:04;99855.81;;;22.01
45701;BMP280;36277;32.852;-116.998;2022-07-29T05:10:30;99853.06;;;21.87
45701;BMP280;36277;32.852;-116.998;2022-07-29T05:12:56;99860.66;;;21.55
45701;BMP280;36277;32.852;-116.998;2022-07-29T05:15:22;99853.53;;;21.46
45701;BMP280;36277;32.852;-116.998;2022-07-29T05:17:49;99843.41;;;21.46
45701;BMP280;36277;32.852;-116.998;2022-07-29T05:20:15;99842.06;;;21.42
45701;BMP280;36277;32.852;-116.998;2022-07-29T05:22:41;99850.66;;;21.84
45701;BMP280;36277;32.852;-116.998;2022-07-29T05:25:07;99839.16;;;22.17
45701;BMP280;36277;32.852;-116.998;2022-07-29T05:27:35;99842.78;;;22.47
45701;BMP280;36277;32.852;-116.998;2022-07-29T05:30:03;99837.13;;;22.63
45701;BMP280;36277;32.852;-116.998;2022-07-29T05:32:29;99846.13;;;22.57
45701;BMP280;36277;32.852;-116.998;2022-07-29T05:34:55;99841.53;;;22.20
45701;BMP280;36277;32.852;-116.998;2022-07-29T05:37:21;99835.75;;;21.64
45701;BMP280;36277;32.852;-116.998;2022-07-29T05:39:48;99840.75;;;21.38
45701;BMP280;36277;32.852;-116.998;2022-07-29T05:42:14;99840.16;;;21.20
45701;BMP280;36277;32.852;-116.998;2022-07-29T05:44:40;99845.34;;;21.38
45701;BMP280;36277;32.852;-116.998;2022-07-29T05:47:06;99838.22;;;21.74
45701;BMP280;36277;32.852;-116.998;2022-07-29T05:49:33;99840.09;;;22.10
45701;BMP280;36277;32.852;-116.998;2022-07-29T05:51:59;99836.06;;;22.35
45701;BMP280;36277;32.852;-116.998;2022-07-29T05:54:25;99827.91;;;22.56
45701;BMP280;36277;32.852;-116.998;2022-07-29T05:56:51;99842.50;;;22.71
45701;BMP280;36277;32.852;-116.998;2022-07-29T05:59:18;99840.31;;;22.66
45701;BMP280;36277;32.852;-116.998;2022-07-29T06:01:44;99834.91;;;22.44
45701;BMP280;36277;32.852;-116.998;2022-07-29T06:04:10;99828.78;;;21.90
45701;BMP280;36277;32.852;-116.998;2022-07-29T06:06:36;99822.56;;;21.37
45701;BMP280;36277;32.852;-116.998;2022-07-29T06:09:03;99814.00;;;21.32
45701;BMP280;36277;32.852;-116.998;2022-07-29T06:11:29;99817.00;;;21.68
45701;BMP280;36277;32.852;-116.998;2022-07-29T06:13:55;99823.91;;;22.00
45701;BMP280;36277;32.852;-116.998;2022-07-29T06:16:21;99831.28;;;22.29
45701;BMP280;36277;32.852;-116.998;2022-07-29T06:18:48;99823.53;;;22.47
45701;BMP280;36277;32.852;-116.998;2022-07-29T06:21:14;99832.28;;;22.65
45701;BMP280;36277;32.852;-116.998;2022-07-29T06:23:40;99828.84;;;22.77
45701;BMP280;36277;32.852;-116.998;2022-07-29T06:26:07;99829.03;;;22.76
45701;BMP280;36277;32.852;-116.998;2022-07-29T06:28:34;99827.81;;;22.64
45701;BMP280;36277;32.852;-116.998;2022-07-29T06:31:00;99820.28;;;22.00
45701;BMP280;36277;32.852;-116.998;2022-07-29T06:33:26;99813.38;;;21.67
45701;BMP280;36277;32.852;-116.998;2022-07-29T06:35:53;99812.00;;;21.26
45701;BMP280;36277;32.852;-116.998;2022-07-29T06:38:20;99818.38;;;21.41
45701;BMP280;36277;32.852;-116.998;2022-07-29T06:40:46;99816.56;;;21.79
45701;BMP280;36277;32.852;-116.998;2022-07-29T06:43:31;99814.88;;;22.06
45701;BMP280;36277;32.852;-116.998;2022-07-29T06:46:04;99822.84;;;22.30
45701;BMP280;36277;32.852;-116.998;2022-07-29T06:48:31;99817.22;;;22.46
45701;BMP280;36277;32.852;-116.998;2022-07-29T06:50:58;99815.94;;;22.63
45701;BMP280;36277;32.852;-116.998;2022-07-29T06:53:25;99825.59;;;22.74
45701;BMP280;36277;32.852;-116.998;2022-07-29T06:55:51;99821.72;;;22.68
45701;BMP280;36277;32.852;-116.998;2022-07-29T06:58:17;99828.53;;;22.29
45701;BMP280;36277;32.852;-116.998;2022-07-29T07:00:48;99815.41;;;21.73
45701;BMP280;36277;32.852;-116.998;2022-07-29T07:03:16;99821.50;;;21.16
45701;BMP280;36277;32.852;-116.998;2022-07-29T07:05:42;99828.66;;;21.25
45701;BMP280;36277;32.852;-116.998;2022-07-29T07:08:09;99820.47;;;21.62
45701;BMP280;36277;32.852;-116.998;2022-07-29T07:10:36;99822.34;;;21.98
45701;BMP280;36277;32.852;-116.998;2022-07-29T07:13:03;99817.16;;;22.17
45701;BMP280;36277;32.852;-116.998;2022-07-29T07:15:29;99820.41;;;22.35
45701;BMP280;36277;32.852;-116.998;2022-07-29T07:17:56;99815.78;;;22.50
45701;BMP280;36277;32.852;-116.998;2022-07-29T07:20:24;99827.16;;;22.62
45701;BMP280;36277;32.852;-116.998;2022-07-29T07:22:50;99829.41;;;22.73
45701;BMP280;36277;32.852;-116.998;2022-07-29T07:25:16;99831.00;;;22.82
45701;BMP280;36277;32.852;-116.998;2022-07-29T07:27:44;99827.50;;;22.88
45701;BMP280;36277;32.852;-116.998;2022-07-29T07:30:10;99823.75;;;22.60
45701;BMP280;36277;32.852;-116.998;2022-07-29T07:32:37;99807.56;;;21.99
45701;BMP280;36277;32.852;-116.998;2022-07-29T07:35:05;99817.34;;;21.42
45701;BMP280;36277;32.852;-116.998;2022-07-29T07:37:32;99813.50;;;21.29
45701;BMP280;36277;32.852;-116.998;2022-07-29T07:39:58;99812.47;;;21.52
45701;BMP280;36277;32.852;-116.998;2022-07-29T07:42:25;99802.34;;;21.89
45701;BMP280;36277;32.852;-116.998;2022-07-29T07:44:51;99808.63;;;22.12
45701;BMP280;36277;32.852;-116.998;2022-07-29T07:47:18;99808.94;;;22.32
45701;BMP280;36277;32.852;-116.998;2022-07-29T07:49:52;99818.91;;;22.47
45701;BMP280;36277;32.852;-116.998;2022-07-29T07:52:20;99820.69;;;22.55
45701;BMP280;36277;32.852;-116.998;2022-07-29T07:54:47;99818.31;;;22.66
45701;BMP280;36277;32.852;-116.998;2022-07-29T07:57:14;99822.69;;;22.75
45701;BMP280;36277;32.852;-116.998;2022-07-29T07:59:41;99817.69;;;22.85
45701;BMP280;36277;32.852;-116.998;2022-07-29T08:02:08;99818.84;;;22.91
45701;BMP280;36277;32.852;-116.998;2022-07-29T08:04:35;99819.38;;;23.00
45701;BMP280;36277;32.852;-116.998;2022-07-29T08:07:02;99818.34;;;23.01
45701;BMP280;36277;32.852;-116.998;2022-07-29T08:09:29;99816.09;;;22.91
45701;BMP280;36277;32.852;-116.998;2022-07-29T08:11:56;99809.78;;;22.61
45701;BMP280;36277;32.852;-116.998;2022-07-29T08:14:23;99803.03;;;22.06
45701;BMP280;36277;32.852;-116.998;2022-07-29T08:16:49;99797.50;;;21.55
45701;BMP280;36277;32.852;-116.998;2022-07-29T08:19:16;99808.22;;;21.27
45701;BMP280;36277;32.852;-116.998;2022-07-29T08:21:43;99810.19;;;21.56
45701;BMP280;36277;32.852;-116.998;2022-07-29T08:24:09;99807.38;;;21.86
45701;BMP280;36277;32.852;-116.998;2022-07-29T08:26:54;99814.13;;;22.12
45701;BMP280;36277;32.852;-116.998;2022-07-29T08:29:20;99810.63;;;22.33
45701;BMP280;36277;32.852;-116.998;2022-07-29T08:31:46;99806.00;;;22.48
45701;BMP280;36277;32.852;-116.998;2022-07-29T08:34:12;99806.19;;;22.61
45701;BMP280;36277;32.852;-116.998;2022-07-29T08:36:39;99803.13;;;22.70
45701;BMP280;36277;32.852;-116.998;2022-07-29T08:39:05;99795.44;;;22.80
45701;BMP280;36277;32.852;-116.998;2022-07-29T08:41:31;99795.31;;;22.88
45701;BMP280;36277;32.852;-116.998;2022-07-29T08:43:58;99791.19;;;22.98
45701;BMP280;36277;32.852;-116.998;2022-07-29T08:46:24;99793.84;;;23.06
45701;BMP280;36277;32.852;-116.998;2022-07-29T08:48:50;99785.88;;;23.11
45701;BMP280;36277;32.852;-116.998;2022-07-29T08:51:21;99774.88;;;23.11
45701;BMP280;36277;32.852;-116.998;2022-07-29T08:53:49;99772.72;;;22.93
45701;BMP280;36277;32.852;-116.998;2022-07-29T08:56:17;99771.03;;;22.42
45701;BMP280;36277;32.852;-116.998;2022-07-29T08:58:44;99762.28;;;21.66
45701;BMP280;36277;32.852;-116.998;2022-07-29T09:01:12;99758.28;;;21.46
45701;BMP280;36277;32.852;-116.998;2022-07-29T09:03:40;99756.31;;;21.77
45701;BMP280;36277;32.852;-116.998;2022-07-29T09:06:07;99755.66;;;22.04
45701;BMP280;36277;32.852;-116.998;2022-07-29T09:08:34;99754.69;;;22.26
45701;BMP280;36277;32.852;-116.998;2022-07-29T09:11:01;99748.56;;;22.38
45701;BMP280;36277;32.852;-116.998;2022-07-29T09:13:28;99764.00;;;22.54
45701;BMP280;36277;32.852;-116.998;2022-07-29T09:15:55;99760.28;;;22.61
45701;BMP280;36277;32.852;-116.998;2022-07-29T09:18:35;99758.34;;;22.76
45701;BMP280;36277;32.852;-116.998;2022-07-29T09:21:03;99751.22;;;22.82
45701;BMP280;36277;32.852;-116.998;2022-07-29T09:24:13;99747.97;;;22.93
45701;BMP280;36277;32.852;-116.998;2022-07-29T09:26:44;99742.03;;;22.96
45701;BMP280;36277;32.852;-116.998;2022-07-29T09:29:18;99745.53;;;23.04
45701;BMP280;36277;32.852;-116.998;2022-07-29T09:31:48;99744.78;;;23.10
45701;BMP280;36277;32.852;-116.998;2022-07-29T09:34:17;99753.78;;;23.18
45701;BMP280;36277;32.852;-116.998;2022-07-29T09:36:49;99755.28;;;23.21
45701;BMP280;36277;32.852;-116.998;2022-07-29T09:39:27;99750.91;;;23.33
45701;BMP280;36277;32.852;-116.998;2022-07-29T09:41:56;99750.09;;;23.11
45701;BMP280;36277;32.852;-116.998;2022-07-29T09:44:24;99738.28;;;22.47
45701;BMP280;36277;32.852;-116.998;2022-07-29T09:46:59;99749.31;;;21.89
45701;BMP280;36277;32.852;-116.998;2022-07-29T09:49:34;99747.88;;;21.42
45701;BMP280;36277;32.852;-116.998;2022-07-29T09:52:05;99745.50;;;21.76
45701;BMP280;36277;32.852;-116.998;2022-07-29T09:54:33;99746.75;;;22.02
45701;BMP280;36277;32.852;-116.998;2022-07-29T09:57:07;99739.91;;;22.27
45701;BMP280;36277;32.852;-116.998;2022-07-29T09:59:38;99753.22;;;22.38
45701;BMP280;36277;32.852;-116.998;2022-07-29T10:02:14;99754.69;;;22.55
45701;BMP280;36277;32.852;-116.998;2022-07-29T10:04:41;99764.94;;;22.61
45701;BMP280;36277;32.852;-116.998;2022-07-29T10:07:09;99750.00;;;22.70
45701;BMP280;36277;32.852;-116.998;2022-07-29T10:09:35;99755.59;;;22.76
45701;BMP280;36277;32.852;-116.998;2022-07-29T10:12:10;99755.28;;;22.86
45701;BMP280;36277;32.852;-116.998;2022-07-29T10:14:37;99766.56;;;22.91
45701;BMP280;36277;32.852;-116.998;2022-07-29T10:17:05;99763.44;;;22.94
45701;BMP280;36277;32.852;-116.998;2022-07-29T10:19:33;99762.91;;;23.04
45701;BMP280;36277;32.852;-116.998;2022-07-29T10:22:02;99769.38;;;23.11
45701;BMP280;36277;32.852;-116.998;2022-07-29T10:24:29;99761.16;;;23.18
45701;BMP280;36277;32.852;-116.998;2022-07-29T10:26:57;99751.25;;;23.23
45701;BMP280;36277;32.852;-116.998;2022-07-29T10:29:24;99740.91;;;23.25
45701;BMP280;36277;32.852;-116.998;2022-07-29T10:43:42;99724.78;;;23.22
45701;BMP280;36277;32.852;-116.998;2022-07-29T10:46:10;99730.44;;;22.44
45701;BMP280;36277;32.852;-116.998;2022-07-29T10:59:40;99754.63;;;22.34
45701;BMP280;36277;32.852;-116.998;2022-07-29T11:04:59;99764.56;;;22.64
45701;BMP280;36277;32.852;-116.998;2022-07-29T11:07:26;99751.97;;;22.76
45701;BMP280;36277;32.852;-116.998;2022-07-29T11:15:08;99780.56;;;22.96
45701;BMP280;36277;32.852;-116.998;2022-07-29T11:20:45;99766.41;;;23.13
45701;BMP280;36277;32.852;-116.998;2022-07-29T11:23:24;99758.19;;;23.19
45701;BMP280;36277;32.852;-116.998;2022-07-29T11:28:43;99754.28;;;23.28
45701;BMP280;36277;32.852;-116.998;2022-07-29T11:31:17;99752.19;;;23.30
45701;BMP280;36277;32.852;-116.998;2022-07-29T11:33:45;99756.91;;;23.36
45701;BMP280;36277;32.852;-116.998;2022-07-29T11:36:14;99749.97;;;23.40
45701;BMP280;36277;32.852;-116.998;2022-07-29T11:38:41;99752.09;;;23.45
45701;BMP280;36277;32.852;-116.998;2022-07-29T11:41:26;99744.75;;;23.52
45701;BMP280;36277;32.852;-116.998;2022-07-29T11:43:56;99739.25;;;23.52
45701;BMP280;36277;32.852;-116.998;2022-07-29T11:46:45;99742.88;;;23.59
45701;BMP280;36277;32.852;-116.998;2022-07-29T11:49:25;99757.53;;;23.59
45701;BMP280;36277;32.852;-116.998;2022-07-29T11:51:56;99760.28;;;23.59
45701;BMP280;36277;32.852;-116.998;2022-07-29T11:54:31;99762.25;;;23.65
45701;BMP280;36277;32.852;-116.998;2022-07-29T11:56:58;99760.53;;;23.64
45701;BMP280;36277;32.852;-116.998;2022-07-29T11:59:25;99765.19;;;23.64
45701;BMP280;36277;32.852;-116.998;2022-07-29T12:01:59;99758.31;;;23.53
45701;BMP280;36277;32.852;-116.998;2022-07-29T12:04:25;99770.97;;;22.71
45701;BMP280;36277;32.852;-116.998;2022-07-29T12:06:56;99774.81;;;22.12
45701;BMP280;36277;32.852;-116.998;2022-07-29T12:09:23;99757.97;;;21.64
45701;BMP280;36277;32.852;-116.998;2022-07-29T12:11:56;99744.09;;;21.94
45701;BMP280;36277;32.852;-116.998;2022-07-29T12:14:27;99748.66;;;22.16
45701;BMP280;36277;32.852;-116.998;2022-07-29T12:16:53;99761.63;;;22.36
45701;BMP280;36277;32.852;-116.998;2022-07-29T12:19:20;99758.97;;;22.43
45701;BMP280;36277;32.852;-116.998;2022-07-29T12:21:47;99754.78;;;22.61
45701;BMP280;36277;32.852;-116.998;2022-07-29T12:24:15;99731.16;;;22.67
45701;BMP280;36277;32.852;-116.998;2022-07-29T12:26:58;99731.63;;;22.91
45701;BMP280;36277;32.852;-116.998;2022-07-29T12:29:25;99744.16;;;22.94
45701;BMP280;36277;32.852;-116.998;2022-07-29T12:31:55;99739.25;;;23.10
45701;BMP280;36277;32.852;-116.998;2022-07-29T12:34:23;99726.63;;;23.15
45701;BMP280;36277;32.852;-116.998;2022-07-29T12:36:52;99740.25;;;23.23
45701;BMP280;36277;32.852;-116.998;2022-07-29T12:39:19;99755.97;;;23.29
45701;BMP280;36277;32.852;-116.998;2022-07-29T12:41:45;99770.69;;;23.36
45701;BMP280;36277;32.852;-116.998;2022-07-29T12:44:12;99785.66;;;23.34
45701;BMP280;36277;32.852;-116.998;2022-07-29T12:46:38;99782.53;;;23.37
45701;BMP280;36277;32.852;-116.998;2022-07-29T12:49:04;99783.25;;;23.45
45701;BMP280;36277;32.852;-116.998;2022-07-29T12:51:38;99786.25;;;23.50
45701;BMP280;36277;32.852;-116.998;2022-07-29T12:54:14;99796.88;;;23.53
45701;BMP280;36277;32.852;-116.998;2022-07-29T12:56:44;99803.06;;;23.55
45701;BMP280;36277;32.852;-116.998;2022-07-29T12:59:17;99796.88;;;23.53
45701;BMP280;36277;32.852;-116.998;2022-07-29T13:01:45;99791.38;;;23.11
45701;BMP280;36277;32.852;-116.998;2022-07-29T13:04:33;99793.28;;;22.61
45701;BMP280;36277;32.852;-116.998;2022-07-29T13:07:03;99798.47;;;22.71
45701;BMP280;36277;32.852;-116.998;2022-07-29T13:09:41;99801.31;;;22.92
45701;BMP280;36277;32.852;-116.998;2022-07-29T13:12:08;99797.84;;;23.04
45701;BMP280;36277;32.852;-116.998;2022-07-29T13:14:46;99800.31;;;23.13
45701;BMP280;36277;32.852;-116.998;2022-07-29T13:17:15;99808.41;;;23.21
45701;BMP280;36277;32.852;-116.998;2022-07-29T13:19:50;99803.19;;;23.26
45701;BMP280;36277;32.852;-116.998;2022-07-29T13:22:21;99811.72;;;23.31
45701;BMP280;36277;32.852;-116.998;2022-07-29T13:27:23;99813.69;;;23.37
45701;BMP280;36277;32.852;-116.998;2022-07-29T13:29:50;99809.94;;;23.45
45701;BMP280;36277;32.852;-116.998;2022-07-29T13:32:19;99816.91;;;23.41
45701;BMP280;36277;32.852;-116.998;2022-07-29T13:34:45;99812.50;;;23.46
45701;BMP280;36277;32.852;-116.998;2022-07-29T13:37:12;99815.50;;;23.51
45701;BMP280;36277;32.852;-116.998;2022-07-29T13:39:38;99814.06;;;23.55
45701;BMP280;36277;32.852;-116.998;2022-07-29T13:42:06;99821.56;;;23.61
45701;BMP280;36277;32.852;-116.998;2022-07-29T13:44:34;99815.66;;;23.64
45701;BMP280;36277;32.852;-116.998;2022-07-29T13:47:01;99814.00;;;23.70
45701;BMP280;36277;32.852;-116.998;2022-07-29T13:49:27;99818.91;;;23.74
45701;BMP280;36277;32.852;-116.998;2022-07-29T13:51:54;99830.56;;;23.76
45701;BMP280;36277;32.852;-116.998;2022-07-29T13:54:20;99833.34;;;23.76
45701;BMP280;36277;32.852;-116.998;2022-07-29T13:56:46;99831.91;;;23.80
45701;BMP280;36277;32.852;-116.998;2022-07-29T13:59:12;99827.06;;;23.82
45701;BMP280;36277;32.852;-116.998;2022-07-29T14:01:39;99837.97;;;23.90
45701;BMP280;36277;32.852;-116.998;2022-07-29T14:04:09;99830.78;;;23.96
45701;BMP280;36277;32.852;-116.998;2022-07-29T14:06:35;99830.56;;;23.97
45701;BMP280;36277;32.852;-116.998;2022-07-29T14:09:03;99826.19;;;24.03
45701;BMP280;36277;32.852;-116.998;2022-07-29T14:11:32;99835.69;;;24.00
45701;BMP280;36277;32.852;-116.998;2022-07-29T14:13:59;99841.47;;;24.05
45701;BMP280;36277;32.852;-116.998;2022-07-29T14:16:25;99845.75;;;24.08
45701;BMP280;36277;32.852;-116.998;2022-07-29T14:18:51;99835.97;;;24.12
45701;BMP280;36277;32.852;-116.998;2022-07-29T14:21:17;99834.75;;;24.14
45701;BMP280;36277;32.852;-116.998;2022-07-29T14:23:44;99834.75;;;24.14
45701;BMP280;36277;32.852;-116.998;2022-07-29T14:26:10;99837.50;;;24.14
45701;BMP280;36277;32.852;-116.998;2022-07-29T14:28:36;99835.19;;;24.17
45701;BMP280;36277;32.852;-116.998;2022-07-29T14:31:03;99840.53;;;24.19
45701;BMP280;36277;32.852;-116.998;2022-07-29T14:33:29;99837.34;;;24.22
45701;BMP280;36277;32.852;-116.998;2022-07-29T14:35:55;99833.13;;;24.26
45701;BMP280;36277;32.852;-116.998;2022-07-29T14:38:21;99831.88;;;24.28
45701;BMP280;36277;32.852;-116.998;2022-07-29T14:40:47;99837.84;;;24.32
45701;BMP280;36277;32.852;-116.998;2022-07-29T14:43:14;99846.38;;;24.37